VLG011 LIBR-LGIO
Flight info
| Callsign | VLG011 |
|---|---|
| Flight time | 0h 42m |
| Altitude | 23000 |
| Route | TIGRA DCT PARAX |
| Aircraft | A320/M-SDE3FGHIRWY/LB1 |
Departure
| Time | 2026-04-16 15:06 |
|---|---|
| Airport | Brindisi Airport (LIBR) |
Arrival
| Time | 2026-04-16 15:48 |
|---|---|
| Airport | Ioannina King Pyrrhus National Airport (LGIO) |
| Time | Latitude | Longitude | Altitude | Speed | Heading |
|---|---|---|---|---|---|
| 2026-04-16 14:46 | 40.65735 | 17.93987 | 57 ft | 0 kts | 1° |
| 2026-04-16 14:58 | 40.65706 | 17.93989 | 54 ft | 4 kts | 348° |
| 2026-04-16 14:58 | 40.65681 | 17.94000 | 53 ft | 4 kts | 333° |
| 2026-04-16 14:59 | 40.65658 | 17.94018 | 51 ft | 4 kts | 326° |
| 2026-04-16 14:59 | 40.65638 | 17.94032 | 51 ft | 4 kts | 23° |
| 2026-04-16 14:59 | 40.65635 | 17.94031 | 51 ft | 0 kts | 52° |
| 2026-04-16 15:01 | 40.65636 | 17.94032 | 51 ft | 1 kts | 52° |
| 2026-04-16 15:01 | 40.65651 | 17.94058 | 48 ft | 8 kts | 52° |
| 2026-04-16 15:01 | 40.65717 | 17.94170 | 52 ft | 18 kts | 52° |
| 2026-04-16 15:01 | 40.65799 | 17.94312 | 53 ft | 21 kts | 52° |
| 2026-04-16 15:02 | 40.65892 | 17.94471 | 52 ft | 19 kts | 53° |
| 2026-04-16 15:02 | 40.65978 | 17.94616 | 52 ft | 17 kts | 52° |
| 2026-04-16 15:02 | 40.66026 | 17.94743 | 57 ft | 14 kts | 107° |
| 2026-04-16 15:02 | 40.65955 | 17.94844 | 54 ft | 16 kts | 137° |
| 2026-04-16 15:03 | 40.65869 | 17.94949 | 55 ft | 18 kts | 137° |
| 2026-04-16 15:03 | 40.65769 | 17.95071 | 56 ft | 21 kts | 137° |
| 2026-04-16 15:03 | 40.65676 | 17.95153 | 55 ft | 15 kts | 183° |
| 2026-04-16 15:03 | 40.65619 | 17.95094 | 55 ft | 8 kts | 226° |
| 2026-04-16 15:04 | 40.65578 | 17.95034 | 55 ft | 10 kts | 238° |
| 2026-04-16 15:04 | 40.65599 | 17.94984 | 50 ft | 6 kts | 317° |
| 2026-04-16 15:04 | 40.65601 | 17.94983 | 50 ft | 0 kts | 317° |
| 2026-04-16 15:05 | 40.65622 | 17.94957 | 56 ft | 16 kts | 317° |
| 2026-04-16 15:05 | 40.65895 | 17.94621 | 54 ft | 88 kts | 316° |
| 2026-04-16 15:05 | 40.66484 | 17.93901 | 60 ft | 140 kts | 317° |
| 2026-04-16 15:06 | 40.67221 | 17.93007 | 626 ft | 143 kts | 318° |
| 2026-04-16 15:06 | 40.67949 | 17.92129 | 1429 ft | 142 kts | 321° |
| 2026-04-16 15:06 | 40.68729 | 17.91181 | 1806 ft | 166 kts | 321° |
| 2026-04-16 15:06 | 40.69629 | 17.90066 | 2145 ft | 188 kts | 320° |
| 2026-04-16 15:07 | 40.70643 | 17.88806 | 2524 ft | 213 kts | 320° |
| 2026-04-16 15:07 | 40.71846 | 17.87522 | 3028 ft | 234 kts | 332° |
| 2026-04-16 15:07 | 40.73380 | 17.86671 | 3595 ft | 250 kts | 348° |
| 2026-04-16 15:07 | 40.75138 | 17.86448 | 4419 ft | 258 kts | 5° |
| 2026-04-16 15:08 | 40.76914 | 17.86945 | 5298 ft | 266 kts | 22° |
| 2026-04-16 15:08 | 40.78527 | 17.88201 | 6187 ft | 275 kts | 39° |
| 2026-04-16 15:08 | 40.79775 | 17.90143 | 7012 ft | 283 kts | 60° |
| 2026-04-16 15:08 | 40.80471 | 17.92583 | 7898 ft | 287 kts | 81° |
| 2026-04-16 15:09 | 40.80494 | 17.95218 | 8768 ft | 290 kts | 101° |
| 2026-04-16 15:09 | 40.79822 | 17.97707 | 9673 ft | 288 kts | 123° |
| 2026-04-16 15:09 | 40.78629 | 17.99842 | 10388 ft | 297 kts | 130° |
| 2026-04-16 15:09 | 40.77284 | 18.02052 | 10658 ft | 320 kts | 130° |
| 2026-04-16 15:10 | 40.75835 | 18.04417 | 10931 ft | 341 kts | 129° |
| 2026-04-16 15:10 | 40.74324 | 18.06890 | 11563 ft | 348 kts | 129° |
| 2026-04-16 15:10 | 40.72806 | 18.09386 | 12320 ft | 352 kts | 129° |
| 2026-04-16 15:10 | 40.71268 | 18.11916 | 13062 ft | 355 kts | 128° |
| 2026-04-16 15:11 | 40.69719 | 18.14459 | 13832 ft | 358 kts | 128° |
| 2026-04-16 15:11 | 40.68147 | 18.17040 | 14442 ft | 363 kts | 128° |
| 2026-04-16 15:11 | 40.66563 | 18.19639 | 15081 ft | 366 kts | 128° |
| 2026-04-16 15:11 | 40.64960 | 18.22262 | 15695 ft | 369 kts | 128° |
| 2026-04-16 15:12 | 40.63340 | 18.24909 | 16357 ft | 371 kts | 128° |
| 2026-04-16 15:12 | 40.62267 | 18.26665 | 16763 ft | 374 kts | 127° |
| 2026-04-16 15:12 | 40.60604 | 18.29306 | 17451 ft | 376 kts | 131° |
| 2026-04-16 15:12 | 40.58752 | 18.31746 | 18127 ft | 379 kts | 134° |
| 2026-04-16 15:13 | 40.56864 | 18.34200 | 18628 ft | 384 kts | 133° |
| 2026-04-16 15:13 | 40.54956 | 18.36672 | 19210 ft | 386 kts | 133° |
| 2026-04-16 15:13 | 40.53031 | 18.39162 | 19741 ft | 391 kts | 134° |
| 2026-04-16 15:13 | 40.51084 | 18.41682 | 20296 ft | 394 kts | 134° |
| 2026-04-16 15:14 | 40.49131 | 18.44212 | 20925 ft | 395 kts | 134° |
| 2026-04-16 15:14 | 40.47169 | 18.46755 | 21455 ft | 397 kts | 134° |
| 2026-04-16 15:14 | 40.45200 | 18.49308 | 22029 ft | 398 kts | 134° |
| 2026-04-16 15:14 | 40.43217 | 18.51872 | 22524 ft | 401 kts | 134° |
| 2026-04-16 15:15 | 40.41220 | 18.54451 | 22922 ft | 405 kts | 134° |
| 2026-04-16 15:15 | 40.39204 | 18.57051 | 23020 ft | 412 kts | 134° |
| 2026-04-16 15:15 | 40.37126 | 18.59732 | 23023 ft | 424 kts | 134° |
| 2026-04-16 15:15 | 40.35006 | 18.62466 | 23022 ft | 430 kts | 134° |
| 2026-04-16 15:16 | 40.32871 | 18.65219 | 23021 ft | 430 kts | 134° |
| 2026-04-16 15:16 | 40.30736 | 18.67966 | 23022 ft | 430 kts | 134° |
| 2026-04-16 15:16 | 40.28600 | 18.70709 | 23021 ft | 429 kts | 134° |
| 2026-04-16 15:16 | 40.26467 | 18.73445 | 23021 ft | 429 kts | 134° |
| 2026-04-16 15:17 | 40.24331 | 18.76180 | 23021 ft | 430 kts | 135° |
| 2026-04-16 15:17 | 40.22187 | 18.78924 | 23024 ft | 430 kts | 134° |
| 2026-04-16 15:17 | 40.20048 | 18.81661 | 23015 ft | 431 kts | 134° |
| 2026-04-16 15:17 | 40.17905 | 18.84398 | 23016 ft | 430 kts | 134° |
| 2026-04-16 15:18 | 40.15763 | 18.87128 | 23016 ft | 430 kts | 134° |
| 2026-04-16 15:18 | 40.13650 | 18.89823 | 23014 ft | 430 kts | 134° |
| 2026-04-16 15:18 | 40.11512 | 18.92549 | 23017 ft | 430 kts | 134° |
| 2026-04-16 15:18 | 40.09371 | 18.95275 | 23021 ft | 429 kts | 134° |
| 2026-04-16 15:19 | 40.07268 | 18.98035 | 23014 ft | 429 kts | 130° |
| 2026-04-16 15:19 | 40.05481 | 19.01133 | 23003 ft | 427 kts | 121° |
| 2026-04-16 15:19 | 40.04093 | 19.04562 | 22996 ft | 427 kts | 114° |
| 2026-04-16 15:19 | 40.02880 | 19.08097 | 22996 ft | 427 kts | 114° |
| 2026-04-16 15:20 | 40.01664 | 19.11631 | 22999 ft | 427 kts | 114° |
| 2026-04-16 15:20 | 40.00447 | 19.15165 | 22992 ft | 427 kts | 114° |
| 2026-04-16 15:20 | 39.99226 | 19.18697 | 22990 ft | 427 kts | 114° |
| 2026-04-16 15:20 | 39.98003 | 19.22227 | 22993 ft | 427 kts | 114° |
| 2026-04-16 15:21 | 39.96781 | 19.25758 | 22982 ft | 426 kts | 114° |
| 2026-04-16 15:21 | 39.95560 | 19.29272 | 22979 ft | 426 kts | 114° |
| 2026-04-16 15:21 | 39.94334 | 19.32790 | 22978 ft | 426 kts | 114° |
| 2026-04-16 15:21 | 39.93109 | 19.36307 | 22979 ft | 426 kts | 114° |
| 2026-04-16 15:22 | 39.91883 | 19.39823 | 22967 ft | 426 kts | 114° |
| 2026-04-16 15:22 | 39.90658 | 19.43335 | 22962 ft | 426 kts | 114° |
| 2026-04-16 15:22 | 39.89428 | 19.46854 | 22962 ft | 426 kts | 114° |
| 2026-04-16 15:22 | 39.88194 | 19.50370 | 22957 ft | 426 kts | 115° |
| 2026-04-16 15:23 | 39.86962 | 19.53883 | 22952 ft | 427 kts | 114° |
| 2026-04-16 15:23 | 39.85730 | 19.57401 | 22951 ft | 427 kts | 114° |
| 2026-04-16 15:23 | 39.84517 | 19.60868 | 22951 ft | 427 kts | 115° |
| 2026-04-16 15:23 | 39.83285 | 19.64378 | 22951 ft | 427 kts | 115° |
| 2026-04-16 15:24 | 39.82052 | 19.67892 | 22943 ft | 427 kts | 115° |
| 2026-04-16 15:24 | 39.80815 | 19.71413 | 22936 ft | 427 kts | 115° |
| 2026-04-16 15:24 | 39.79578 | 19.74919 | 22938 ft | 427 kts | 115° |
| 2026-04-16 15:24 | 39.78337 | 19.78429 | 22936 ft | 427 kts | 115° |
| 2026-04-16 15:25 | 39.77096 | 19.81938 | 22932 ft | 427 kts | 115° |
| 2026-04-16 15:25 | 39.75853 | 19.85451 | 22906 ft | 425 kts | 114° |
| 2026-04-16 15:25 | 39.74624 | 19.88918 | 22004 ft | 423 kts | 115° |
| 2026-04-16 15:25 | 39.73394 | 19.92377 | 21247 ft | 419 kts | 115° |
| 2026-04-16 15:26 | 39.72183 | 19.95789 | 20568 ft | 412 kts | 114° |
| 2026-04-16 15:26 | 39.70986 | 19.99148 | 19898 ft | 407 kts | 115° |
| 2026-04-16 15:26 | 39.69803 | 20.02466 | 19276 ft | 403 kts | 114° |
| 2026-04-16 15:26 | 39.68631 | 20.05752 | 18656 ft | 399 kts | 114° |
| 2026-04-16 15:27 | 39.67470 | 20.09010 | 18045 ft | 396 kts | 114° |
| 2026-04-16 15:27 | 39.66323 | 20.12237 | 17425 ft | 391 kts | 114° |
| 2026-04-16 15:27 | 39.65189 | 20.15418 | 16860 ft | 386 kts | 114° |
| 2026-04-16 15:27 | 39.64082 | 20.18517 | 16294 ft | 381 kts | 114° |
| 2026-04-16 15:28 | 39.62967 | 20.21612 | 15702 ft | 377 kts | 114° |
| 2026-04-16 15:28 | 39.61866 | 20.24678 | 15118 ft | 373 kts | 114° |
| 2026-04-16 15:28 | 39.60776 | 20.27712 | 14515 ft | 369 kts | 114° |
| 2026-04-16 15:28 | 39.59693 | 20.30710 | 13907 ft | 366 kts | 114° |
| 2026-04-16 15:29 | 39.58622 | 20.33687 | 13258 ft | 363 kts | 114° |
| 2026-04-16 15:29 | 39.57656 | 20.36678 | 12644 ft | 357 kts | 106° |
| 2026-04-16 15:29 | 39.57184 | 20.39809 | 12031 ft | 352 kts | 92° |
| 2026-04-16 15:29 | 39.57386 | 20.42885 | 11859 ft | 336 kts | 76° |
| 2026-04-16 15:30 | 39.58223 | 20.45646 | 11788 ft | 330 kts | 60° |
| 2026-04-16 15:30 | 39.59658 | 20.47895 | 11706 ft | 316 kts | 41° |
| 2026-04-16 15:30 | 39.61469 | 20.49330 | 11481 ft | 299 kts | 24° |
| 2026-04-16 15:30 | 39.63473 | 20.49914 | 10895 ft | 295 kts | 5° |
| 2026-04-16 15:31 | 39.65520 | 20.49967 | 10222 ft | 294 kts | 4° |
| 2026-04-16 15:31 | 39.67511 | 20.50002 | 10082 ft | 275 kts | 4° |
| 2026-04-16 15:31 | 39.69348 | 20.50029 | 9989 ft | 255 kts | 4° |
| 2026-04-16 15:31 | 39.71089 | 20.50061 | 9707 ft | 246 kts | 4° |
| 2026-04-16 15:32 | 39.72773 | 20.50101 | 9369 ft | 238 kts | 4° |
| 2026-04-16 15:32 | 39.74375 | 20.50226 | 9063 ft | 230 kts | 11° |
| 2026-04-16 15:32 | 39.75931 | 20.50604 | 8763 ft | 221 kts | 18° |
| 2026-04-16 15:32 | 39.77349 | 20.51116 | 8496 ft | 207 kts | 20° |
| 2026-04-16 15:33 | 39.78674 | 20.51695 | 8220 ft | 193 kts | 24° |
| 2026-04-16 15:33 | 39.79874 | 20.52314 | 7942 ft | 178 kts | 26° |
| 2026-04-16 15:33 | 39.80963 | 20.52963 | 7700 ft | 168 kts | 30° |
| 2026-04-16 15:33 | 39.81981 | 20.53647 | 7474 ft | 160 kts | 32° |
| 2026-04-16 15:34 | 39.82925 | 20.54354 | 7277 ft | 153 kts | 35° |
| 2026-04-16 15:34 | 39.83796 | 20.55056 | 7093 ft | 145 kts | 36° |
| 2026-04-16 15:34 | 39.84633 | 20.55767 | 6935 ft | 142 kts | 45° |
| 2026-04-16 15:34 | 39.85172 | 20.56804 | 6795 ft | 139 kts | 73° |
| 2026-04-16 15:35 | 39.85251 | 20.58040 | 6654 ft | 139 kts | 99° |
| 2026-04-16 15:35 | 39.84846 | 20.59182 | 6504 ft | 142 kts | 126° |
| 2026-04-16 15:35 | 39.84208 | 20.60154 | 6337 ft | 140 kts | 126° |
| 2026-04-16 15:35 | 39.83584 | 20.61116 | 6087 ft | 137 kts | 127° |
| 2026-04-16 15:36 | 39.82969 | 20.62055 | 5864 ft | 139 kts | 127° |
| 2026-04-16 15:36 | 39.82342 | 20.63022 | 5691 ft | 141 kts | 126° |
| 2026-04-16 15:36 | 39.81720 | 20.63993 | 5560 ft | 139 kts | 126° |
| 2026-04-16 15:36 | 39.81108 | 20.64949 | 5400 ft | 139 kts | 125° |
| 2026-04-16 15:37 | 39.80476 | 20.65936 | 5206 ft | 141 kts | 126° |
| 2026-04-16 15:37 | 39.79850 | 20.66911 | 4973 ft | 140 kts | 125° |
| 2026-04-16 15:37 | 39.79241 | 20.67870 | 4768 ft | 138 kts | 124° |
| 2026-04-16 15:37 | 39.78629 | 20.68823 | 4575 ft | 137 kts | 125° |
| 2026-04-16 15:38 | 39.78002 | 20.69753 | 4413 ft | 138 kts | 125° |
| 2026-04-16 15:38 | 39.77371 | 20.70702 | 4247 ft | 138 kts | 125° |
| 2026-04-16 15:38 | 39.76750 | 20.71648 | 4055 ft | 138 kts | 125° |
| 2026-04-16 15:38 | 39.76125 | 20.72610 | 3790 ft | 141 kts | 124° |
| 2026-04-16 15:39 | 39.75495 | 20.73581 | 3553 ft | 141 kts | 128° |
| 2026-04-16 15:39 | 39.74777 | 20.74428 | 3357 ft | 137 kts | 123° |
| 2026-04-16 15:39 | 39.74234 | 20.75430 | 3267 ft | 137 kts | 121° |
| 2026-04-16 15:39 | 39.73638 | 20.76418 | 3310 ft | 142 kts | 130° |
| 2026-04-16 15:40 | 39.72825 | 20.77193 | 3316 ft | 148 kts | 142° |
| 2026-04-16 15:40 | 39.71949 | 20.77888 | 3373 ft | 148 kts | 143° |
| 2026-04-16 15:40 | 39.71064 | 20.78582 | 3374 ft | 146 kts | 144° |
| 2026-04-16 15:40 | 39.70206 | 20.79251 | 3359 ft | 141 kts | 142° |
| 2026-04-16 15:41 | 39.69378 | 20.79897 | 3319 ft | 137 kts | 142° |
| 2026-04-16 15:41 | 39.68573 | 20.80554 | 3291 ft | 138 kts | 140° |
| 2026-04-16 15:41 | 39.67789 | 20.81255 | 3303 ft | 138 kts | 141° |
| 2026-04-16 15:41 | 39.66992 | 20.81973 | 3317 ft | 138 kts | 142° |
| 2026-04-16 15:42 | 39.66227 | 20.82697 | 3300 ft | 138 kts | 140° |
| 2026-04-16 15:42 | 39.65479 | 20.83477 | 3249 ft | 135 kts | 130° |
| 2026-04-16 15:42 | 39.65267 | 20.84613 | 3012 ft | 136 kts | 73° |
| 2026-04-16 15:42 | 39.65901 | 20.85490 | 2742 ft | 143 kts | 21° |
| 2026-04-16 15:43 | 39.66838 | 20.85236 | 2381 ft | 150 kts | 322° |
| 2026-04-16 15:43 | 39.67610 | 20.84322 | 1990 ft | 147 kts | 325° |
| 2026-04-16 15:43 | 39.68405 | 20.83547 | 1771 ft | 143 kts | 325° |
| 2026-04-16 15:43 | 39.69172 | 20.82763 | 1587 ft | 131 kts | 327° |
| 2026-04-16 15:44 | 39.69820 | 20.82148 | 1575 ft | 103 kts | 332° |
| 2026-04-16 15:44 | 39.70459 | 20.81455 | 1975 ft | 123 kts | 324° |
| 2026-04-16 15:44 | 39.71202 | 20.80787 | 2500 ft | 145 kts | 345° |
| 2026-04-16 15:44 | 39.72284 | 20.80367 | 3034 ft | 176 kts | 351° |
| 2026-04-16 15:45 | 39.73460 | 20.79927 | 3433 ft | 172 kts | 346° |
| 2026-04-16 15:45 | 39.74565 | 20.79374 | 3418 ft | 175 kts | 340° |
| 2026-04-16 15:45 | 39.75590 | 20.78489 | 3111 ft | 177 kts | 315° |
| 2026-04-16 15:45 | 39.75905 | 20.77005 | 2833 ft | 178 kts | 256° |
| 2026-04-16 15:46 | 39.75151 | 20.75891 | 2642 ft | 160 kts | 191° |
| 2026-04-16 15:46 | 39.74258 | 20.76253 | 2510 ft | 137 kts | 119° |
| 2026-04-16 15:46 | 39.73873 | 20.77462 | 2270 ft | 151 kts | 109° |
| 2026-04-16 15:46 | 39.73310 | 20.78513 | 2135 ft | 140 kts | 138° |
| 2026-04-16 15:47 | 39.72551 | 20.79276 | 2006 ft | 136 kts | 137° |
| 2026-04-16 15:47 | 39.71799 | 20.80054 | 1937 ft | 140 kts | 135° |
| 2026-04-16 15:47 | 39.71038 | 20.80853 | 1767 ft | 142 kts | 137° |
| 2026-04-16 15:47 | 39.70286 | 20.81633 | 1572 ft | 129 kts | 141° |
| 2026-04-16 15:48 | 39.69671 | 20.82262 | 1566 ft | 90 kts | 143° |
| 2026-04-16 15:48 | 39.69325 | 20.82613 | 1567 ft | 35 kts | 143° |
| 2026-04-16 15:48 | 39.69212 | 20.82641 | 1567 ft | 10 kts | 198° |
| 2026-04-16 15:48 | 39.69147 | 20.82615 | 1565 ft | 0 kts | 198° |